createdAt,value
2023-08-29T00:00:30.146Z,14.41
2023-08-29T00:02:56.422Z,14.41
2023-08-29T00:05:22.805Z,14.42
2023-08-29T00:07:49.136Z,14.40
2023-08-29T00:10:15.383Z,14.38
2023-08-29T00:12:41.619Z,14.40
2023-08-29T00:15:08.102Z,14.35
2023-08-29T00:17:34.383Z,14.00
2023-08-29T00:20:01.194Z,14.05
2023-08-29T00:22:27.436Z,14.13
2023-08-29T00:24:53.719Z,14.14
2023-08-29T00:27:20.004Z,14.17
2023-08-29T00:29:46.309Z,14.24
2023-08-29T00:32:12.541Z,14.25
2023-08-29T00:34:38.790Z,14.13
2023-08-29T00:37:05.075Z,14.16
2023-08-29T00:39:31.335Z,14.12
2023-08-29T00:41:57.570Z,14.15
2023-08-29T00:44:23.837Z,14.12
2023-08-29T00:46:50.775Z,13.96
2023-08-29T00:49:17.854Z,14.01
2023-08-29T00:51:44.103Z,14.08
2023-08-29T00:54:10.355Z,14.10
2023-08-29T00:56:36.616Z,14.13
2023-08-29T00:59:02.973Z,14.06
2023-08-29T01:01:29.487Z,14.06
2023-08-29T01:03:55.810Z,13.84
2023-08-29T01:06:22.106Z,13.64
2023-08-29T01:08:48.361Z,13.62
2023-08-29T01:11:15.691Z,13.70
2023-08-29T01:13:53.799Z,13.87
2023-08-29T01:16:20.993Z,13.95
2023-08-29T01:18:47.289Z,14.03
2023-08-29T01:21:32.123Z,13.98
2023-08-29T01:24:17.509Z,13.71
2023-08-29T01:26:43.976Z,13.84
2023-08-29T01:29:10.267Z,13.96
2023-08-29T01:31:36.573Z,13.88
2023-08-29T01:34:02.902Z,13.94
2023-08-29T01:36:38.049Z,14.01
2023-08-29T01:39:04.418Z,14.01
2023-08-29T01:41:30.668Z,14.05
2023-08-29T01:43:56.978Z,14.06
2023-08-29T01:46:23.263Z,14.07
2023-08-29T01:48:49.522Z,14.05
2023-08-29T01:51:15.784Z,14.01
2023-08-29T01:53:42.032Z,14.00
2023-08-29T01:56:08.266Z,13.93
2023-08-29T01:58:34.702Z,13.47
2023-08-29T02:01:09.809Z,13.56
2023-08-29T02:03:47.522Z,13.69
2023-08-29T02:06:14.089Z,13.80
2023-08-29T02:08:40.512Z,13.85
2023-08-29T02:11:06.766Z,13.84
2023-08-29T02:13:33.031Z,13.91
2023-08-29T02:15:59.276Z,13.91
2023-08-29T02:18:25.530Z,13.91
2023-08-29T02:20:51.762Z,13.86
2023-08-29T02:23:18.016Z,13.50
2023-08-29T02:25:44.253Z,13.45
2023-08-29T02:28:10.503Z,13.53
2023-08-29T02:30:36.763Z,13.55
2023-08-29T02:33:03.127Z,13.61
2023-08-29T02:35:29.406Z,13.66
2023-08-29T02:37:55.656Z,13.65
2023-08-29T02:40:21.927Z,13.67
2023-08-29T02:42:48.185Z,13.66
2023-08-29T02:45:14.466Z,13.64
2023-08-29T02:47:40.763Z,13.67
2023-08-29T02:50:07.333Z,13.65
2023-08-29T02:52:33.564Z,13.62
2023-08-29T02:54:59.842Z,13.58
2023-08-29T02:57:26.092Z,13.57
2023-08-29T02:59:52.341Z,13.57
2023-08-29T03:02:18.604Z,13.58
2023-08-29T03:04:44.860Z,13.45
2023-08-29T03:07:11.107Z,12.88
2023-08-29T03:09:37.347Z,13.06
2023-08-29T03:12:03.690Z,13.15
2023-08-29T03:14:29.939Z,13.20
2023-08-29T03:16:56.165Z,13.26
2023-08-29T03:19:22.417Z,13.34
2023-08-29T03:21:48.658Z,13.33
2023-08-29T03:24:14.903Z,13.34
2023-08-29T03:26:41.168Z,13.23
2023-08-29T03:29:07.435Z,13.25
2023-08-29T03:31:33.708Z,13.20
2023-08-29T03:33:59.949Z,13.21
2023-08-29T03:36:26.181Z,13.22
2023-08-29T03:38:52.547Z,13.25
2023-08-29T03:41:18.792Z,13.28
2023-08-29T03:43:45.081Z,13.22
2023-08-29T03:46:11.357Z,12.92
2023-08-29T03:48:38.256Z,12.72
2023-08-29T03:51:04.967Z,12.71
2023-08-29T03:53:31.212Z,12.68
2023-08-29T03:55:59.679Z,12.87
2023-08-29T03:58:25.923Z,12.92
2023-08-29T04:00:53.429Z,13.05
2023-08-29T04:03:19.855Z,13.09
2023-08-29T04:05:49.128Z,13.11
2023-08-29T04:08:15.457Z,13.11
2023-08-29T04:10:41.892Z,13.13
2023-08-29T04:13:08.240Z,13.13
2023-08-29T04:15:34.724Z,13.05
2023-08-29T04:18:04.405Z,12.99
2023-08-29T04:20:31.010Z,12.93
2023-08-29T04:22:57.259Z,12.88
2023-08-29T04:25:23.506Z,12.90
2023-08-29T04:27:49.773Z,12.78
2023-08-29T04:30:16.041Z,12.82
2023-08-29T04:32:42.333Z,12.88
2023-08-29T04:35:08.633Z,12.82
2023-08-29T04:37:35.211Z,12.87
2023-08-29T04:40:01.595Z,12.96
2023-08-29T04:42:27.932Z,12.96
2023-08-29T04:44:54.450Z,12.96
2023-08-29T04:47:21.068Z,12.98
2023-08-29T04:49:47.430Z,12.99
2023-08-29T04:52:13.704Z,12.66
2023-08-29T04:54:39.959Z,12.46
2023-08-29T04:57:06.224Z,12.72
2023-08-29T04:59:32.507Z,12.56
2023-08-29T05:01:58.763Z,12.70
2023-08-29T05:04:25.001Z,12.84
2023-08-29T05:06:51.263Z,12.96
2023-08-29T05:09:20.359Z,12.80
2023-08-29T05:11:46.885Z,12.92
2023-08-29T05:14:13.135Z,13.03
2023-08-29T05:16:39.409Z,13.08
2023-08-29T05:19:05.662Z,12.77
2023-08-29T05:21:31.938Z,12.50
2023-08-29T05:23:58.195Z,12.73
2023-08-29T05:26:24.551Z,12.86
2023-08-29T05:28:51.072Z,12.99
2023-08-29T05:31:17.369Z,13.05
2023-08-29T05:33:43.610Z,13.14
2023-08-29T05:36:09.854Z,13.11
2023-08-29T05:38:36.110Z,13.05
2023-08-29T05:41:03.236Z,13.13
2023-08-29T05:43:29.488Z,13.26
2023-08-29T05:45:57.109Z,13.36
2023-08-29T05:48:23.771Z,13.30
2023-08-29T05:50:50.256Z,13.29
2023-08-29T05:53:16.810Z,13.40
2023-08-29T05:55:43.063Z,13.48
2023-08-29T05:58:09.488Z,13.43
2023-08-29T06:00:35.898Z,13.40
2023-08-29T06:03:02.298Z,13.51
2023-08-29T06:05:28.574Z,13.59
2023-08-29T06:07:59.414Z,13.66
2023-08-29T06:10:35.350Z,13.80
2023-08-29T06:13:01.599Z,13.84
2023-08-29T06:15:27.834Z,13.91
2023-08-29T06:17:54.619Z,14.10
2023-08-29T06:20:20.892Z,14.16
2023-08-29T06:22:47.160Z,14.04
2023-08-29T06:25:13.432Z,14.06
2023-08-29T06:27:39.684Z,14.20
2023-08-29T06:30:06.292Z,14.42
2023-08-29T06:32:32.598Z,14.38
2023-08-29T06:34:58.861Z,14.45
2023-08-29T06:37:25.111Z,14.53
2023-08-29T06:39:51.375Z,14.62
2023-08-29T06:42:17.655Z,14.56
2023-08-29T06:44:43.898Z,14.70
2023-08-29T06:47:10.392Z,14.77
2023-08-29T06:49:36.629Z,14.80
2023-08-29T06:52:02.896Z,14.68
2023-08-29T06:54:30.876Z,14.80
2023-08-29T06:56:58.229Z,14.82
2023-08-29T06:59:24.471Z,14.88
2023-08-29T07:01:53.609Z,14.98
2023-08-29T07:04:20.187Z,14.98
2023-08-29T07:06:46.454Z,15.07
2023-08-29T07:09:12.696Z,15.14
2023-08-29T07:11:38.974Z,15.20
2023-08-29T07:14:05.396Z,15.29
2023-08-29T07:16:31.879Z,15.34
2023-08-29T07:18:58.164Z,15.38
2023-08-29T07:21:24.408Z,15.43
2023-08-29T07:23:50.659Z,15.50
2023-08-29T07:26:16.900Z,15.62
2023-08-29T07:28:43.149Z,15.70
2023-08-29T07:31:09.448Z,15.81
2023-08-29T07:33:35.745Z,15.89
2023-08-29T07:36:01.975Z,15.96
2023-08-29T07:38:28.220Z,16.01
2023-08-29T07:40:54.459Z,16.03
2023-08-29T07:43:20.716Z,16.12
2023-08-29T07:45:46.967Z,16.22
2023-08-29T07:48:13.272Z,16.27
2023-08-29T07:50:39.553Z,16.34
2023-08-29T07:53:05.816Z,16.43
2023-08-29T07:55:32.048Z,16.51
2023-08-29T07:57:58.322Z,16.42
2023-08-29T08:00:24.596Z,-143.24
2023-08-29T08:02:50.902Z,-143.24
2023-08-29T08:05:17.187Z,-143.24
2023-08-29T08:07:44.158Z,-143.24
2023-08-29T08:10:10.756Z,-143.24
2023-08-29T08:12:37.223Z,-143.24
2023-08-29T08:15:03.563Z,-143.24
2023-08-29T08:17:29.840Z,-143.24
2023-08-29T08:19:56.098Z,-143.24
2023-08-29T08:22:22.800Z,-143.24
2023-08-29T08:24:49.048Z,-143.24
2023-08-29T08:27:15.311Z,-143.24
2023-08-29T08:29:41.570Z,-143.24
2023-08-29T08:32:07.873Z,-143.24
2023-08-29T08:34:34.168Z,-143.24
2023-08-29T08:37:00.425Z,-143.24
2023-08-29T08:39:26.714Z,-143.24
2023-08-29T08:41:52.971Z,-143.24
2023-08-29T08:44:19.888Z,-143.24
2023-08-29T08:46:46.192Z,-143.24
2023-08-29T08:49:12.446Z,-143.24
2023-08-29T08:51:38.714Z,-143.24
2023-08-29T08:54:07.968Z,-143.24
2023-08-29T08:56:34.436Z,-143.24
2023-08-29T08:59:00.716Z,-143.24
2023-08-29T09:01:27.221Z,-143.24
2023-08-29T09:03:53.651Z,-143.24
2023-08-29T09:06:19.917Z,-143.24
2023-08-29T09:08:46.173Z,-143.24
2023-08-29T09:11:12.415Z,-143.24
2023-08-29T09:13:47.870Z,-143.24
2023-08-29T09:16:14.282Z,-143.24
2023-08-29T09:18:43.168Z,-143.24
2023-08-29T09:21:18.765Z,-143.24
2023-08-29T09:23:45.025Z,-143.24
2023-08-29T09:26:11.638Z,-143.24
2023-08-29T09:28:37.895Z,-143.24
2023-08-29T09:31:07.492Z,-143.24
2023-08-29T09:33:34.055Z,-143.24
2023-08-29T09:36:03.820Z,-143.24
2023-08-29T09:38:30.106Z,-143.24
2023-08-29T09:40:56.403Z,-143.24
2023-08-29T09:43:22.661Z,-143.24
2023-08-29T09:45:49.618Z,-143.24
2023-08-29T09:48:15.964Z,-143.24
2023-08-29T09:50:44.008Z,-143.24
2023-08-29T09:53:10.257Z,-143.24
2023-08-29T09:55:39.959Z,-143.24
2023-08-29T09:58:07.073Z,-143.24
2023-08-29T10:00:35.228Z,-143.24
2023-08-29T10:03:01.606Z,-143.24
2023-08-29T10:05:30.877Z,-143.24
2023-08-29T10:07:57.225Z,-143.24
2023-08-29T10:10:25.120Z,-143.24
2023-08-29T10:12:51.502Z,-143.24
2023-08-29T10:15:17.893Z,-143.24
2023-08-29T10:17:44.218Z,-143.24
2023-08-29T10:20:10.658Z,-143.24
2023-08-29T10:22:37.759Z,-143.24
2023-08-29T10:25:04.124Z,-143.24
2023-08-29T10:27:31.309Z,-143.24
2023-08-29T10:29:57.563Z,-143.24
2023-08-29T10:32:25.330Z,-143.24
2023-08-29T10:34:52.926Z,-143.24
2023-08-29T10:37:19.543Z,-143.24
2023-08-29T10:39:45.818Z,-143.24
2023-08-29T10:42:14.813Z,-143.24
2023-08-29T10:44:45.108Z,-143.24
2023-08-29T10:47:18.799Z,-143.24
2023-08-29T10:49:45.116Z,-143.24
2023-08-29T10:52:11.493Z,-143.24
2023-08-29T10:54:37.768Z,-143.24
2023-08-29T10:57:22.537Z,-143.24
2023-08-29T10:59:48.788Z,-143.24
2023-08-29T11:02:27.641Z,-143.24
2023-08-29T11:04:56.353Z,-143.24
2023-08-29T11:07:23.506Z,-143.24
2023-08-29T11:09:49.747Z,-143.24
2023-08-29T11:12:16.034Z,-143.24
2023-08-29T11:14:51.404Z,-143.24
2023-08-29T11:17:17.662Z,-143.24
2023-08-29T11:19:43.913Z,-143.24
2023-08-29T11:22:10.173Z,-143.24
2023-08-29T11:24:36.418Z,-143.24
2023-08-29T11:27:02.670Z,-143.24
2023-08-29T11:29:35.718Z,-143.24
2023-08-29T11:32:01.982Z,-143.24
2023-08-29T11:34:28.231Z,-143.24
2023-08-29T11:36:54.491Z,-143.24
2023-08-29T11:39:20.936Z,-143.24
2023-08-29T11:42:04.303Z,-143.24
2023-08-29T11:45:29.059Z,-143.24
2023-08-29T11:47:20.412Z,-143.24
2023-08-29T11:49:49.870Z,-143.24
2023-08-29T11:52:18.863Z,-143.24
2023-08-29T11:54:51.870Z,-143.24
2023-08-29T11:57:18.455Z,-143.24
2023-08-29T11:59:45.232Z,-143.24
2023-08-29T12:02:11.873Z,-143.24
2023-08-29T12:04:41.333Z,-143.24
2023-08-29T12:07:16.966Z,-143.24
2023-08-29T12:09:43.848Z,-143.24
2023-08-29T12:12:10.472Z,-143.24
2023-08-29T12:24:10.104Z,-143.24
2023-08-29T12:26:36.367Z,-143.24
2023-08-29T12:29:02.687Z,-143.24
2023-08-29T12:31:28.978Z,-143.24
2023-08-29T12:33:55.233Z,-143.24
2023-08-29T12:36:21.508Z,-143.24
2023-08-29T12:38:47.770Z,-143.24
2023-08-29T12:41:14.034Z,-143.24
2023-08-29T12:43:40.553Z,-143.24
2023-08-29T12:46:07.045Z,-143.24
2023-08-29T12:48:33.322Z,-143.24
2023-08-29T12:50:59.593Z,-143.24
2023-08-29T12:53:25.854Z,-143.24
2023-08-29T12:55:52.124Z,-143.24
2023-08-29T12:58:18.369Z,-143.24
2023-08-29T13:00:44.870Z,-143.24
2023-08-29T13:03:11.335Z,-143.24
2023-08-29T13:05:37.901Z,-143.24
2023-08-29T13:08:04.877Z,-143.24
2023-08-29T13:10:31.394Z,-143.24
2023-08-29T13:12:57.718Z,-143.24
2023-08-29T13:15:26.609Z,-143.24
2023-08-29T13:17:57.315Z,-143.24
2023-08-29T13:20:23.612Z,-143.24
2023-08-29T13:22:49.864Z,-143.24
2023-08-29T13:25:16.100Z,-143.24
2023-08-29T13:27:42.395Z,-143.24
2023-08-29T13:30:08.851Z,-143.24
2023-08-29T13:32:35.147Z,-143.24
2023-08-29T13:35:07.937Z,-143.24
2023-08-29T13:37:34.224Z,-143.24
2023-08-29T13:40:00.472Z,-143.24
2023-08-29T13:42:27.536Z,-143.24
2023-08-29T13:44:54.838Z,-143.24
2023-08-29T13:47:21.107Z,-143.24
2023-08-29T13:49:47.386Z,-143.24
2023-08-29T13:52:13.639Z,-143.24
2023-08-29T13:54:39.938Z,-143.24
2023-08-29T13:57:06.237Z,-143.24
2023-08-29T13:59:32.501Z,-143.24
2023-08-29T14:01:58.794Z,-143.24
2023-08-29T14:04:25.060Z,-143.24
2023-08-29T14:06:51.336Z,-143.24
2023-08-29T14:09:17.689Z,-143.24
2023-08-29T14:11:43.963Z,-143.24
2023-08-29T14:14:10.219Z,-143.24
2023-08-29T14:16:36.493Z,-143.24
2023-08-29T14:19:02.735Z,-143.24
2023-08-29T14:21:29.004Z,-143.24
2023-08-29T14:23:55.282Z,-143.24
2023-08-29T14:26:21.553Z,-143.24
2023-08-29T14:28:47.816Z,-143.24
2023-08-29T14:31:14.101Z,-143.24
2023-08-29T14:33:40.374Z,-143.24
2023-08-29T14:36:06.657Z,-143.24
2023-08-29T14:38:32.922Z,-143.24
2023-08-29T14:41:08.650Z,-143.24
2023-08-29T14:43:35.820Z,-143.24
2023-08-29T14:46:02.075Z,-143.24
2023-08-29T14:48:28.337Z,-143.24
2023-08-29T14:50:54.589Z,-143.24
2023-08-29T14:53:20.846Z,-143.24
2023-08-29T14:55:47.102Z,-143.24
2023-08-29T14:58:13.383Z,-143.24
2023-08-29T15:00:39.639Z,-143.24
2023-08-29T15:03:08.790Z,-143.24
2023-08-29T15:05:36.485Z,-143.24
2023-08-29T15:08:02.821Z,-143.24
2023-08-29T15:10:29.069Z,-143.24
2023-08-29T15:12:55.333Z,-143.24
2023-08-29T15:15:21.588Z,-143.24
2023-08-29T15:17:47.888Z,-143.24
2023-08-29T15:20:14.167Z,-143.24
2023-08-29T15:22:40.446Z,-143.24
2023-08-29T15:25:07.100Z,-143.24
2023-08-29T15:27:33.368Z,-143.24
2023-08-29T15:29:59.627Z,-143.24
2023-08-29T15:32:25.895Z,-143.24
2023-08-29T15:34:52.240Z,-143.24
2023-08-29T15:37:18.497Z,-143.24
2023-08-29T15:39:46.774Z,-143.24
2023-08-29T15:42:13.131Z,-143.24
2023-08-29T15:44:39.380Z,-143.24
2023-08-29T15:47:05.812Z,-143.24
2023-08-29T15:49:32.261Z,-143.24
2023-08-29T15:51:58.527Z,-143.24
2023-08-29T15:54:24.833Z,-143.24
2023-08-29T15:56:51.079Z,-143.24
2023-08-29T15:59:17.339Z,-143.24
2023-08-29T16:01:43.622Z,-143.24
2023-08-29T16:04:09.893Z,-143.24
2023-08-29T16:06:36.133Z,-143.24
2023-08-29T16:09:02.395Z,-143.24
2023-08-29T16:11:28.653Z,-143.24
2023-08-29T16:13:54.933Z,-143.24
2023-08-29T16:16:21.251Z,-143.24
2023-08-29T16:18:47.545Z,-143.24
2023-08-29T16:21:16.454Z,-143.24
2023-08-29T16:23:43.892Z,-143.24
2023-08-29T16:26:13.471Z,-143.24
2023-08-29T16:28:39.741Z,-143.24
2023-08-29T16:31:06.016Z,-143.24
2023-08-29T16:33:32.333Z,-143.24
2023-08-29T16:35:58.599Z,-143.24
2023-08-29T16:38:24.873Z,-143.24
2023-08-29T16:40:51.144Z,-143.24
2023-08-29T16:43:17.426Z,-143.24
2023-08-29T16:45:43.698Z,-143.24
2023-08-29T16:48:10.389Z,-143.24
2023-08-29T16:50:36.980Z,-143.24
2023-08-29T16:53:03.252Z,-143.24
2023-08-29T16:55:32.535Z,-143.24
2023-08-29T16:58:00.313Z,-143.24
2023-08-29T17:00:26.803Z,-143.24
2023-08-29T17:02:53.214Z,-143.24
2023-08-29T17:05:19.534Z,-143.24
2023-08-29T17:07:45.788Z,-143.24
2023-08-29T17:13:24.572Z,-143.24
2023-08-29T17:15:50.831Z,-143.24
2023-08-29T17:18:17.117Z,-143.24
2023-08-29T17:20:43.403Z,-143.24
2023-08-29T17:23:09.653Z,-143.24
2023-08-29T17:25:35.926Z,-143.24
2023-08-29T17:28:02.257Z,-143.24
2023-08-29T17:30:28.551Z,-143.24
2023-08-29T17:32:54.848Z,-143.24
2023-08-29T17:35:21.121Z,-143.24
2023-08-29T17:37:47.399Z,-143.24
2023-08-29T17:40:13.668Z,-143.24
2023-08-29T17:42:39.963Z,-143.24
2023-08-29T17:45:09.629Z,-143.24
2023-08-29T17:47:36.126Z,-143.24
2023-08-29T17:50:03.306Z,-143.24
2023-08-29T17:52:30.002Z,-143.24
2023-08-29T17:54:56.273Z,-143.24
2023-08-29T17:57:22.528Z,-143.24
2023-08-29T17:59:49.020Z,-143.24
2023-08-29T18:02:15.280Z,-143.24
2023-08-29T18:04:41.528Z,-143.24
2023-08-29T18:07:07.828Z,-143.24
2023-08-29T18:09:34.121Z,-143.24
2023-08-29T18:12:00.429Z,-143.24
2023-08-29T18:14:26.682Z,-143.24
2023-08-29T18:16:52.943Z,-143.24
2023-08-29T18:19:19.194Z,-143.24
2023-08-29T18:21:45.482Z,-143.24
2023-08-29T18:24:11.728Z,-143.24
2023-08-29T18:26:37.982Z,-143.24
2023-08-29T18:29:04.232Z,-143.24
2023-08-29T18:31:30.673Z,-143.24
2023-08-29T18:33:56.945Z,-143.24
2023-08-29T18:36:23.228Z,-143.24
2023-08-29T18:38:49.496Z,-143.24
2023-08-29T18:41:15.788Z,-143.24
2023-08-29T18:43:42.068Z,-143.24
2023-08-29T18:46:08.371Z,-143.24
2023-08-29T18:48:34.697Z,-143.24
2023-08-29T18:51:00.956Z,-143.24
2023-08-29T18:53:27.236Z,-143.24
2023-08-29T18:55:53.500Z,-143.24
2023-08-29T18:58:19.766Z,-143.24
2023-08-29T19:00:46.026Z,-143.24
2023-08-29T19:03:12.311Z,-143.24
2023-08-29T19:05:39.715Z,-143.24
2023-08-29T19:08:06.308Z,-143.24
2023-08-29T19:10:32.820Z,-143.24
2023-08-29T19:12:59.095Z,-143.24
2023-08-29T19:15:25.476Z,-143.24
2023-08-29T19:17:51.920Z,-143.24
2023-08-29T19:20:18.205Z,-143.24
2023-08-29T19:22:44.484Z,-143.24
2023-08-29T19:25:10.751Z,-143.24
2023-08-29T19:27:37.014Z,-143.24
2023-08-29T19:30:03.348Z,-143.24
2023-08-29T19:32:29.685Z,-143.24
2023-08-29T19:34:55.986Z,-143.24
2023-08-29T19:37:22.299Z,-143.24
2023-08-29T19:39:48.600Z,-143.24
2023-08-29T19:42:14.879Z,-143.24
2023-08-29T19:44:41.133Z,-143.24
2023-08-29T19:47:07.556Z,-143.24
2023-08-29T19:49:37.145Z,-143.24
2023-08-29T19:52:03.474Z,-143.24
2023-08-29T19:54:29.767Z,-143.24
2023-08-29T19:56:56.068Z,-143.24
2023-08-29T19:59:22.342Z,-143.24
2023-08-29T20:01:48.626Z,-143.24
2023-08-29T20:04:14.887Z,-143.24
2023-08-29T20:06:41.163Z,-143.24
2023-08-29T20:09:07.436Z,-143.24
2023-08-29T20:11:33.766Z,-143.24
2023-08-29T20:14:00.028Z,-143.24
2023-08-29T20:16:26.373Z,-143.24
2023-08-29T20:18:53.762Z,-143.24
2023-08-29T20:21:20.028Z,-143.24
2023-08-29T20:24:00.055Z,-143.24
2023-08-29T20:26:28.980Z,-143.24
2023-08-29T20:28:55.268Z,-143.24
2023-08-29T20:31:21.571Z,-143.24
2023-08-29T20:33:47.876Z,-143.24
2023-08-29T20:36:14.120Z,-143.24
2023-08-29T20:38:40.370Z,-143.24
2023-08-29T20:41:06.622Z,-143.24
2023-08-29T20:43:32.891Z,-143.24
2023-08-29T20:45:59.166Z,-143.24
2023-08-29T20:48:25.443Z,-143.24
2023-08-29T20:50:54.674Z,-143.24
2023-08-29T20:53:20.943Z,-143.24
2023-08-29T20:55:47.189Z,-143.24
2023-08-29T20:58:13.467Z,-143.24
2023-08-29T21:00:39.721Z,-143.24
2023-08-29T21:03:06.065Z,-143.24
2023-08-29T21:05:34.461Z,-143.24
2023-08-29T21:08:00.726Z,-143.24
2023-08-29T21:10:27.841Z,-143.24
2023-08-29T21:12:54.101Z,-143.24
2023-08-29T21:15:20.356Z,-143.24
2023-08-29T21:17:46.660Z,-143.24
2023-08-29T21:20:12.919Z,-143.24
2023-08-29T21:22:39.193Z,-143.24
2023-08-29T21:25:05.486Z,-143.24
2023-08-29T21:27:31.755Z,-143.24
2023-08-29T21:29:58.020Z,-143.24
2023-08-29T21:32:24.271Z,-143.24
2023-08-29T21:34:50.543Z,-143.24
2023-08-29T21:37:16.886Z,-143.24
2023-08-29T21:39:43.139Z,-143.24
2023-08-29T21:42:09.391Z,-143.24
2023-08-29T21:44:35.643Z,-143.24
2023-08-29T21:47:01.903Z,-143.24
2023-08-29T21:49:28.181Z,-143.24
2023-08-29T21:51:54.430Z,-143.24
2023-08-29T21:54:20.696Z,-143.24
2023-08-29T21:56:46.947Z,-143.24
2023-08-29T21:59:13.547Z,-143.24
2023-08-29T22:01:39.852Z,-143.24
2023-08-29T22:04:06.281Z,-143.24
2023-08-29T22:06:32.549Z,-143.24
2023-08-29T22:08:58.799Z,-143.24
2023-08-29T22:11:25.064Z,-143.24
2023-08-29T22:13:51.319Z,-143.24
2023-08-29T22:16:17.623Z,-143.24
2023-08-29T22:18:43.897Z,-143.24
2023-08-29T22:21:10.163Z,-143.24
2023-08-29T22:23:36.432Z,-143.24
2023-08-29T22:26:05.593Z,-143.24
2023-08-29T22:28:31.859Z,-143.24
2023-08-29T22:30:58.130Z,-143.24
2023-08-29T22:33:24.404Z,-143.24
2023-08-29T22:35:50.655Z,-143.24
2023-08-29T22:38:16.918Z,-143.24
2023-08-29T22:40:43.181Z,-143.24
2023-08-29T22:43:09.439Z,-143.24
2023-08-29T22:45:35.708Z,-143.24
2023-08-29T22:48:02.031Z,-143.24
2023-08-29T22:50:28.324Z,-143.24
2023-08-29T22:52:54.586Z,-143.24
2023-08-29T22:55:20.830Z,-143.24
2023-08-29T22:57:47.090Z,-143.24
2023-08-29T23:00:13.580Z,-143.24
2023-08-29T23:02:39.945Z,-143.24
2023-08-29T23:05:06.842Z,-143.24
2023-08-29T23:07:33.101Z,-143.24
2023-08-29T23:09:59.394Z,-143.24
2023-08-29T23:12:25.660Z,-143.24
2023-08-29T23:14:51.911Z,-143.24
2023-08-29T23:17:18.172Z,-143.24
2023-08-29T23:19:44.436Z,-143.24
2023-08-29T23:22:10.698Z,-143.24
2023-08-29T23:24:36.977Z,-143.24
2023-08-29T23:27:03.259Z,-143.24
2023-08-29T23:29:30.146Z,-143.24
2023-08-29T23:31:56.423Z,-143.24
2023-08-29T23:34:22.689Z,-143.24
2023-08-29T23:36:48.930Z,-143.24
2023-08-29T23:39:15.201Z,-143.24
2023-08-29T23:41:41.468Z,-143.24
2023-08-29T23:44:07.741Z,-143.24
2023-08-29T23:46:34.064Z,-143.24
2023-08-29T23:49:00.378Z,-143.24
2023-08-29T23:51:26.645Z,-143.24
2023-08-29T23:53:52.906Z,-143.24
2023-08-29T23:56:19.176Z,-143.24
2023-08-29T23:58:45.750Z,-143.24
